Time;durP1;ratioP1;P1;durP2;ratioP2;P2;SDS_P1;SDS_P2;PMS_P1;PMS_P2;Temp;Humidity;BMP_temperature;BMP_pressure;BME280_temperature;BME280_humidity;BME280_pressure;Samples;Min_cycle;Max_cycle;Signal;HPM_P1;HPM_P2
2022/04/03 00:01:43;;;;;;;3.92;2.42;;;2.10;76.40;;;;;;5067856;28;20227;-82
2022/04/03 00:04:09;;;;;;;7.10;2.25;;;2.00;76.80;;;;;;5080079;28;20104;-82
2022/04/03 00:06:34;;;;;;;3.92;2.35;;;2.00;76.90;;;;;;5053958;28;20065;-81
2022/04/03 00:09:01;;;;;;;6.93;2.20;;;2.10;77.10;;;;;;5062071;28;20040;-82
2022/04/03 00:11:28;;;;;;;4.47;2.28;;;2.00;77.30;;;;;;5068878;28;20016;-80
2022/04/03 00:13:54;;;;;;;4.90;2.00;;;1.90;77.40;;;;;;5075478;28;20161;-79
2022/04/03 00:16:20;;;;;;;6.60;2.22;;;1.90;77.60;;;;;;5078518;28;20064;-83
2022/04/03 00:18:45;;;;;;;3.17;1.95;;;1.90;77.90;;;;;;5080060;28;20735;-82
2022/04/03 00:21:13;;;;;;;4.43;2.50;;;1.90;77.90;;;;;;5069087;28;20025;-81
2022/04/03 00:23:39;;;;;;;3.10;1.85;;;1.90;77.70;;;;;;5075379;28;20115;-82
2022/04/03 00:26:05;;;;;;;2.05;1.63;;;1.90;78.00;;;;;;5056395;28;20535;-80
2022/04/03 00:28:31;;;;;;;4.35;1.63;;;1.90;78.30;;;;;;5076592;28;20099;-82
2022/04/03 00:30:56;;;;;;;3.45;1.67;;;1.80;78.20;;;;;;5057374;28;20037;-81
2022/04/03 00:33:22;;;;;;;2.85;1.83;;;1.80;78.40;;;;;;5079609;28;20048;-81
2022/04/03 00:35:50;;;;;;;3.45;1.77;;;1.80;78.90;;;;;;5078279;28;20346;-82
2022/04/03 00:38:15;;;;;;;4.20;1.90;;;1.80;78.50;;;;;;5055414;28;20059;-81
2022/04/03 00:40:42;;;;;;;3.38;1.70;;;1.70;78.90;;;;;;5075605;28;20051;-80
2022/04/03 00:43:08;;;;;;;3.28;1.45;;;1.80;79.30;;;;;;5073843;28;20028;-81
2022/04/03 00:45:34;;;;;;;2.95;1.30;;;1.80;78.80;;;;;;5083022;28;20028;-80
2022/04/03 00:47:59;;;;;;;2.50;1.30;;;1.80;78.90;;;;;;5053303;28;20021;-82
2022/04/03 00:50:25;;;;;;;3.03;1.38;;;1.80;79.10;;;;;;5061327;28;20021;-82
2022/04/03 00:52:51;;;;;;;2.08;1.38;;;1.80;79.30;;;;;;5059984;28;20350;-83
2022/04/03 00:55:16;;;;;;;5.10;1.80;;;1.80;79.20;;;;;;5072201;28;20036;-82
2022/04/03 00:57:43;;;;;;;2.47;1.67;;;1.90;79.60;;;;;;5072111;28;20099;-82
2022/04/03 01:00:09;;;;;;;3.50;1.48;;;1.80;79.00;;;;;;5072744;28;20477;-83
2022/04/03 01:02:35;;;;;;;2.95;1.25;;;1.80;78.90;;;;;;5039264;28;20025;-84
2022/04/03 01:05:01;;;;;;;3.08;1.50;;;1.80;79.00;;;;;;5075678;28;20029;-83
2022/04/03 01:07:26;;;;;;;2.58;1.55;;;1.80;79.10;;;;;;5066076;28;20021;-82
2022/04/03 01:09:52;;;;;;;4.53;1.98;;;1.80;79.20;;;;;;5083124;28;20092;-81
2022/04/03 01:12:17;;;;;;;3.00;1.63;;;1.80;79.50;;;;;;5085265;28;20055;-83
2022/04/03 01:14:43;;;;;;;2.40;1.52;;;1.80;79.40;;;;;;5086421;28;20036;-82
2022/04/03 01:17:11;;;;;;;9.73;1.83;;;1.70;79.70;;;;;;5080807;28;20028;-82
2022/04/03 01:19:37;;;;;;;2.85;1.52;;;1.70;80.20;;;;;;5083565;28;20031;-82
2022/04/03 01:22:03;;;;;;;2.05;1.85;;;1.70;80.10;;;;;;5054199;28;20031;-82
2022/04/03 01:24:30;;;;;;;2.30;1.70;;;1.60;80.40;;;;;;5055058;28;20040;-82
2022/04/03 01:26:56;;;;;;;2.28;1.23;;;1.60;80.40;;;;;;5070915;28;20023;-80
2022/04/03 01:29:23;;;;;;;2.92;1.38;;;1.60;81.00;;;;;;5068327;28;20036;-83
2022/04/03 01:31:49;;;;;;;3.15;1.48;;;1.60;80.60;;;;;;5079171;28;20045;-82
2022/04/03 01:34:16;;;;;;;2.72;1.90;;;1.50;81.10;;;;;;5052980;28;20109;-81
2022/04/03 01:36:42;;;;;;;2.95;1.48;;;1.40;81.20;;;;;;5051189;28;20032;-81
2022/04/03 01:39:10;;;;;;;4.07;1.60;;;1.40;81.20;;;;;;5048313;28;20039;-83
2022/04/03 01:41:36;;;;;;;2.15;1.35;;;1.40;81.40;;;;;;5067113;28;20036;-82
2022/04/03 01:44:02;;;;;;;2.75;1.65;;;1.40;81.60;;;;;;5065884;28;20581;-80
2022/04/03 01:46:28;;;;;;;2.38;1.40;;;1.30;82.10;;;;;;5051495;28;20016;-81
2022/04/03 01:48:53;;;;;;;2.63;1.63;;;1.20;82.40;;;;;;5062807;28;20074;-81
2022/04/03 01:51:19;;;;;;;2.90;1.65;;;1.20;82.50;;;;;;5056743;28;20149;-84
2022/04/03 01:53:44;;;;;;;3.45;2.17;;;1.10;82.50;;;;;;5080576;28;20486;-82
2022/04/03 01:56:09;;;;;;;3.20;1.55;;;1.10;82.50;;;;;;5050753;28;20032;-83
2022/04/03 01:58:35;;;;;;;3.00;1.92;;;1.10;82.90;;;;;;5068286;28;20028;-82
2022/04/03 02:01:02;;;;;;;3.38;1.70;;;1.10;83.00;;;;;;5051683;28;20078;-82
2022/04/03 02:03:28;;;;;;;4.05;1.42;;;1.00;83.50;;;;;;5079475;28;20027;-81
2022/04/03 02:05:54;;;;;;;4.03;1.67;;;0.90;83.50;;;;;;5073910;28;20082;-83
2022/04/03 02:08:20;;;;;;;6.45;1.80;;;0.90;83.70;;;;;;5049621;28;20028;-81
2022/04/03 02:10:45;;;;;;;4.00;1.92;;;0.90;83.90;;;;;;5047440;28;20029;-82
2022/04/03 02:13:11;;;;;;;5.90;1.85;;;0.80;83.90;;;;;;5073493;28;20021;-81
2022/04/03 02:15:38;;;;;;;3.53;2.22;;;0.80;83.90;;;;;;5050898;28;20028;-80
2022/04/03 02:18:04;;;;;;;3.55;1.75;;;0.70;84.30;;;;;;5048512;28;20032;-80
2022/04/03 02:20:31;;;;;;;4.65;2.45;;;0.70;84.50;;;;;;5057344;28;20123;-81
2022/04/03 02:22:58;;;;;;;2.63;1.88;;;0.70;84.60;;;;;;5077467;28;20028;-83
2022/04/03 02:25:24;;;;;;;3.28;2.10;;;0.60;84.90;;;;;;5067353;28;20036;-81
2022/04/03 02:27:50;;;;;;;2.97;2.13;;;0.60;85.00;;;;;;5072745;28;20412;-81
2022/04/03 02:30:16;;;;;;;4.20;2.10;;;0.60;84.60;;;;;;5067614;28;20020;-81
2022/04/03 02:32:41;;;;;;;5.72;2.33;;;0.60;84.80;;;;;;5067733;28;20089;-82
2022/04/03 02:35:09;;;;;;;6.20;2.60;;;0.60;84.80;;;;;;5047962;28;20056;-83
2022/04/03 02:37:37;;;;;;;5.13;2.45;;;0.60;85.00;;;;;;5064380;28;20027;-82
2022/04/03 02:40:04;;;;;;;5.05;2.38;;;0.60;85.00;;;;;;5065263;28;20051;-80
2022/04/03 02:42:30;;;;;;;7.80;2.92;;;0.60;85.10;;;;;;5066788;28;20040;-82
2022/04/03 02:44:56;;;;;;;4.53;2.53;;;0.60;84.90;;;;;;5069252;28;20508;-82
2022/04/03 02:47:22;;;;;;;4.47;2.30;;;0.60;85.10;;;;;;5074637;28;20055;-80
2022/04/03 02:49:49;;;;;;;7.55;2.47;;;0.60;85.10;;;;;;5075142;28;20032;-81
2022/04/03 02:52:15;;;;;;;4.20;2.17;;;0.60;85.00;;;;;;5073917;28;20389;-80
2022/04/03 02:54:41;;;;;;;5.30;2.42;;;0.60;85.30;;;;;;5073268;28;20028;-80
2022/04/03 02:57:07;;;;;;;3.15;2.63;;;0.60;85.30;;;;;;5073068;28;20021;-81
2022/04/03 02:59:33;;;;;;;5.75;2.40;;;0.60;85.50;;;;;;5054544;28;20027;-80
2022/04/03 03:01:59;;;;;;;5.05;2.20;;;0.60;85.60;;;;;;5070983;28;20016;-81
2022/04/03 03:04:24;;;;;;;4.70;2.05;;;0.60;85.70;;;;;;5073609;28;20051;-81
2022/04/03 03:06:50;;;;;;;2.88;1.92;;;0.60;85.60;;;;;;5051294;28;20051;-82
2022/04/03 03:09:17;;;;;;;2.38;1.83;;;0.60;85.60;;;;;;5068985;28;20041;-81
2022/04/03 03:11:43;;;;;;;5.32;2.40;;;0.50;85.80;;;;;;5061071;28;20024;-81
2022/04/03 03:14:08;;;;;;;5.05;2.15;;;0.50;86.20;;;;;;5052181;28;20487;-82
2022/04/03 03:16:34;;;;;;;2.28;1.70;;;0.50;86.40;;;;;;5058567;28;20052;-81
2022/04/03 03:18:59;;;;;;;7.57;3.08;;;0.50;86.60;;;;;;5072870;28;20107;-83
2022/04/03 03:21:25;;;;;;;4.68;2.03;;;0.40;86.70;;;;;;5082838;28;20020;-81
2022/04/03 03:23:50;;;;;;;3.08;2.08;;;0.40;86.70;;;;;;5073988;28;20525;-80
2022/04/03 03:26:16;;;;;;;2.38;2.03;;;0.40;86.80;;;;;;5056287;28;20027;-82
2022/04/03 03:28:41;;;;;;;5.20;2.00;;;0.40;87.20;;;;;;5072763;28;20048;-82
2022/04/03 03:31:07;;;;;;;3.47;1.95;;;0.20;87.60;;;;;;5056688;28;20539;-83
2022/04/03 03:33:33;;;;;;;3.15;2.20;;;0.20;88.20;;;;;;5079600;28;20025;-83
2022/04/03 03:35:59;;;;;;;3.50;2.47;;;0.10;88.30;;;;;;5055669;28;20028;-83
2022/04/03 03:38:24;;;;;;;6.32;2.05;;;0.20;88.50;;;;;;5072549;28;20028;-84
2022/04/03 03:40:50;;;;;;;2.88;1.70;;;0.10;88.40;;;;;;5084087;28;20030;-81
2022/04/03 03:43:16;;;;;;;2.30;1.80;;;0.10;88.40;;;;;;5067407;28;20082;-82
2022/04/03 03:45:42;;;;;;;4.07;2.05;;;0.10;89.00;;;;;;5069918;28;20044;-83
2022/04/03 03:48:10;;;;;;;3.13;2.17;;;0.10;89.30;;;;;;5053619;28;20016;-81
2022/04/03 03:50:36;;;;;;;4.90;2.10;;;0.10;89.40;;;;;;5082531;28;20449;-82
2022/04/03 03:53:01;;;;;;;3.13;2.15;;;0.10;89.50;;;;;;5080533;28;20040;-81
2022/04/03 03:55:27;;;;;;;6.20;2.30;;;0.10;89.70;;;;;;5061248;28;20040;-79
2022/04/03 03:57:53;;;;;;;4.53;2.35;;;0.10;90.10;;;;;;5082203;28;20117;-82
2022/04/03 04:00:18;;;;;;;6.95;2.22;;;0.10;90.20;;;;;;5080052;28;20036;-82
2022/04/03 04:02:44;;;;;;;6.03;2.40;;;0.00;90.60;;;;;;5055877;28;21810;-80
2022/04/03 04:05:10;;;;;;;3.22;1.70;;;0.00;90.40;;;;;;5068947;28;20111;-81
2022/04/03 04:07:38;;;;;;;3.58;2.50;;;0.00;90.50;;;;;;5068814;28;20078;-81
2022/04/03 04:10:04;;;;;;;3.95;2.75;;;0.00;90.70;;;;;;5064396;28;20036;-80
2022/04/03 04:12:30;;;;;;;3.70;2.08;;;-0.10;90.70;;;;;;5069840;28;20043;-80
2022/04/03 04:14:55;;;;;;;2.90;2.30;;;-0.10;90.70;;;;;;5071575;28;20044;-82
2022/04/03 04:17:21;;;;;;;2.53;1.98;;;-0.20;90.70;;;;;;5071134;28;20028;-82
2022/04/03 04:19:46;;;;;;;3.70;2.65;;;-0.30;90.70;;;;;;5065500;28;20035;-82
2022/04/03 04:22:12;;;;;;;19.92;2.53;;;-0.30;90.60;;;;;;5057099;28;20024;-80
2022/04/03 04:24:37;;;;;;;3.83;1.92;;;-0.30;90.60;;;;;;5079143;28;20052;-82
2022/04/03 04:27:04;;;;;;;5.70;2.05;;;-0.40;90.70;;;;;;5072243;28;20518;-81
2022/04/03 04:29:30;;;;;;;2.70;2.15;;;-0.40;90.70;;;;;;5070606;28;20535;-79
2022/04/03 04:31:55;;;;;;;3.92;2.33;;;-0.50;90.60;;;;;;5050190;28;20759;-83
2022/04/03 04:34:20;;;;;;;4.63;2.42;;;-0.50;90.60;;;;;;5051189;28;20063;-80
2022/04/03 04:36:47;;;;;;;5.00;2.63;;;-0.50;90.60;;;;;;5072495;28;20032;-80
2022/04/03 04:39:12;;;;;;;4.38;2.75;;;-0.50;90.50;;;;;;5075847;28;20028;-79
2022/04/03 04:41:38;;;;;;;5.38;2.15;;;-0.50;90.50;;;;;;5066564;28;20062;-83
2022/04/03 04:44:04;;;;;;;3.00;2.10;;;-0.60;90.70;;;;;;5069347;28;20055;-80
2022/04/03 04:46:29;;;;;;;2.95;2.25;;;-0.70;90.70;;;;;;5069392;28;20039;-80
2022/04/03 04:48:55;;;;;;;4.13;2.35;;;-0.70;90.80;;;;;;5069339;28;20031;-81
2022/04/03 04:51:20;;;;;;;4.95;2.33;;;-0.70;90.70;;;;;;5055283;28;20703;-80
2022/04/03 04:53:46;;;;;;;3.88;2.40;;;-0.70;90.60;;;;;;5056670;28;20111;-80
2022/04/03 04:56:12;;;;;;;362.05;125.93;;;-0.70;90.70;;;;;;5067770;28;20040;-80
2022/04/03 04:58:37;;;;;;;44.97;21.55;;;-0.70;90.70;;;;;;5046049;28;20144;-80
2022/04/03 05:01:03;;;;;;;12.20;7.43;;;-0.70;90.70;;;;;;5065474;28;20515;-80
2022/04/03 05:03:29;;;;;;;5.70;4.63;;;-0.70;90.70;;;;;;5064567;28;20028;-80
2022/04/03 05:05:55;;;;;;;5.32;3.85;;;-0.70;90.60;;;;;;5042615;28;20040;-79
2022/04/03 05:08:23;;;;;;;7.43;4.05;;;-0.80;90.50;;;;;;5065894;28;20037;-80
2022/04/03 05:10:49;;;;;;;3.25;2.47;;;-0.80;90.60;;;;;;5063470;28;20036;-82
2022/04/03 05:13:15;;;;;;;3.08;2.20;;;-0.80;90.50;;;;;;5061477;28;20410;-81
2022/04/03 05:15:40;;;;;;;6.10;3.05;;;-0.80;90.40;;;;;;5061926;28;20040;-81
2022/04/03 05:18:06;;;;;;;5.40;3.50;;;-0.70;90.40;;;;;;5065896;28;21629;-80
2022/04/03 05:20:33;;;;;;;4.78;2.60;;;-0.70;90.40;;;;;;5063608;28;20107;-81
2022/04/03 05:22:59;;;;;;;4.57;2.90;;;-0.70;90.30;;;;;;5067841;28;20029;-81
2022/04/03 05:25:25;;;;;;;3.95;3.60;;;-0.70;90.20;;;;;;5071955;28;20162;-81
2022/04/03 05:27:50;;;;;;;4.00;2.80;;;-0.70;90.10;;;;;;5049276;28;20024;-81
2022/04/03 05:30:16;;;;;;;4.05;2.67;;;-0.70;90.10;;;;;;5065309;28;20107;-81
2022/04/03 05:32:42;;;;;;;7.30;4.40;;;-0.70;90.20;;;;;;5045613;28;20032;-80
2022/04/03 05:35:09;;;;;;;7.68;4.80;;;-0.70;90.10;;;;;;5065306;28;20051;-81
2022/04/03 05:37:36;;;;;;;7.47;2.70;;;-0.60;90.10;;;;;;5065629;28;21812;-81
2022/04/03 05:40:04;;;;;;;4.88;3.85;;;-0.60;89.90;;;;;;5063606;28;20017;-80
2022/04/03 05:42:30;;;;;;;6.07;4.47;;;-0.60;89.70;;;;;;5064191;28;20036;-80
2022/04/03 05:44:56;;;;;;;6.55;4.78;;;-0.60;89.70;;;;;;5065595;28;20493;-80
2022/04/03 05:47:21;;;;;;;3.75;2.75;;;-0.50;89.50;;;;;;5069211;28;20043;-82
2022/04/03 05:49:47;;;;;;;5.43;3.28;;;-0.50;89.20;;;;;;5065765;28;20099;-82
2022/04/03 05:52:13;;;;;;;4.57;2.95;;;-0.40;89.20;;;;;;5049757;28;20077;-81
2022/04/03 05:54:38;;;;;;;5.78;3.72;;;-0.40;89.10;;;;;;5071033;28;20074;-81
2022/04/03 05:57:04;;;;;;;6.65;3.70;;;-0.40;89.10;;;;;;5060040;28;20465;-82
2022/04/03 05:59:30;;;;;;;7.35;4.47;;;-0.40;89.20;;;;;;5064121;28;20362;-81
2022/04/03 06:01:56;;;;;;;6.15;2.90;;;-0.30;88.70;;;;;;5065205;28;20017;-80
2022/04/03 06:04:22;;;;;;;4.82;3.72;;;-0.20;88.40;;;;;;5066222;28;20039;-82
2022/04/03 06:06:47;;;;;;;6.03;2.42;;;-0.10;87.80;;;;;;5047056;28;20024;-82
2022/04/03 06:09:13;;;;;;;2.38;2.17;;;0.10;87.30;;;;;;5063248;28;20113;-81
2022/04/03 06:11:38;;;;;;;2.65;2.03;;;0.20;86.80;;;;;;5065572;28;20063;-80
2022/04/03 06:14:04;;;;;;;2.67;1.90;;;0.30;86.90;;;;;;5063752;28;20035;-81
2022/04/03 06:16:29;;;;;;;3.30;2.50;;;0.50;86.50;;;;;;5066373;28;20024;-80
2022/04/03 06:18:55;;;;;;;3.08;2.25;;;0.60;85.80;;;;;;5065804;28;20017;-80
2022/04/03 06:21:20;;;;;;;4.82;2.13;;;0.80;84.80;;;;;;5073962;28;20033;-80
2022/04/03 06:23:46;;;;;;;3.97;2.20;;;0.90;85.10;;;;;;5070709;28;20086;-81
2022/04/03 06:26:12;;;;;;;3.65;2.58;;;1.00;83.90;;;;;;5076088;28;20021;-80
2022/04/03 06:28:37;;;;;;;4.55;2.35;;;1.10;83.70;;;;;;5070367;28;20028;-82
2022/04/03 06:31:03;;;;;;;6.00;4.20;;;1.30;82.50;;;;;;5076715;28;20080;-80
2022/04/03 06:33:29;;;;;;;6.78;2.05;;;1.30;81.70;;;;;;5069081;28;20032;-81
2022/04/03 06:35:54;;;;;;;3.88;2.40;;;1.40;81.70;;;;;;5068550;28;20032;-81
2022/04/03 06:38:20;;;;;;;4.63;2.50;;;1.60;81.90;;;;;;5069995;28;20384;-81
2022/04/03 06:40:53;;;;;;;2.30;2.10;;;1.60;80.40;;;;;;5051240;28;20033;-79
2022/04/03 06:43:20;;;;;;;2.88;2.03;;;1.70;80.00;;;;;;5068702;28;20413;-79
2022/04/03 06:45:47;;;;;;;6.30;3.22;;;1.80;79.60;;;;;;5050293;28;20033;-83
2022/04/03 06:48:13;;;;;;;2.92;2.05;;;1.90;79.90;;;;;;5067456;28;20362;-82
2022/04/03 06:50:38;;;;;;;4.28;2.30;;;2.00;79.00;;;;;;5068999;28;20028;-82
2022/04/03 06:53:04;;;;;;;4.15;2.92;;;2.10;78.70;;;;;;5069766;28;20028;-81
2022/04/03 06:55:29;;;;;;;2.92;2.38;;;2.20;77.60;;;;;;5050887;28;20043;-81
2022/04/03 06:57:55;;;;;;;2.95;2.10;;;2.40;76.60;;;;;;5069617;28;20020;-82
2022/04/03 07:00:21;;;;;;;2.55;1.85;;;2.50;77.30;;;;;;5068806;28;20132;-81
2022/04/03 07:02:48;;;;;;;2.75;1.70;;;2.50;77.00;;;;;;5067429;28;20035;-82
2022/04/03 07:05:13;;;;;;;3.28;2.00;;;2.70;76.00;;;;;;5068596;28;20558;-84
2022/04/03 07:07:39;;;;;;;4.05;2.30;;;2.70;76.10;;;;;;5046927;28;20024;-83
2022/04/03 07:10:05;;;;;;;4.32;2.35;;;2.80;75.60;;;;;;5069631;28;20457;-82
2022/04/03 07:12:31;;;;;;;5.13;2.60;;;2.90;75.30;;;;;;5069531;28;20457;-84
2022/04/03 07:14:56;;;;;;;5.03;1.52;;;3.10;75.80;;;;;;5041186;28;20051;-81
2022/04/03 07:17:22;;;;;;;2.58;1.90;;;3.20;74.00;;;;;;5068427;28;20031;-82
2022/04/03 07:19:48;;;;;;;2.83;1.80;;;3.20;73.50;;;;;;5068027;28;20082;-83
2022/04/03 07:22:13;;;;;;;3.17;2.45;;;3.30;73.70;;;;;;5050273;28;20035;-82
2022/04/03 07:24:39;;;;;;;4.07;1.98;;;3.30;72.80;;;;;;5050795;28;20036;-82
2022/04/03 07:27:05;;;;;;;2.58;1.60;;;3.30;72.90;;;;;;5063813;28;20064;-82
2022/04/03 07:29:30;;;;;;;2.60;2.40;;;3.30;72.80;;;;;;5042777;28;20032;-83
2022/04/03 07:31:56;;;;;;;4.22;2.17;;;3.40;73.30;;;;;;5070672;28;20039;-83
2022/04/03 07:34:22;;;;;;;3.38;2.33;;;3.50;73.50;;;;;;5054682;28;20048;-83
2022/04/03 07:36:48;;;;;;;2.60;1.92;;;3.70;72.00;;;;;;5070597;28;20461;-84
2022/04/03 07:39:15;;;;;;;4.97;2.13;;;3.80;72.10;;;;;;5071279;28;20043;-83
2022/04/03 07:41:40;;;;;;;3.83;1.52;;;4.00;70.80;;;;;;5072199;28;20025;-82
2022/04/03 07:44:08;;;;;;;1.73;1.50;;;4.10;71.10;;;;;;5071849;28;20373;-83
2022/04/03 07:46:34;;;;;;;2.90;1.52;;;4.30;71.10;;;;;;5069910;28;20161;-82
2022/04/03 07:49:00;;;;;;;3.00;1.70;;;4.40;71.30;;;;;;5051531;28;20546;-84
2022/04/03 07:51:27;;;;;;;3.72;2.65;;;4.60;70.00;;;;;;5053398;28;20025;-82
2022/04/03 07:53:53;;;;;;;3.00;1.75;;;4.60;69.20;;;;;;5069850;28;20067;-84
2022/04/03 07:56:18;;;;;;;2.67;1.80;;;4.70;68.70;;;;;;5072235;28;20143;-82
2022/04/03 07:58:44;;;;;;;3.20;1.80;;;4.70;67.90;;;;;;5071041;28;20033;-83
2022/04/03 08:01:09;;;;;;;3.85;1.80;;;4.70;67.40;;;;;;5072071;28;20096;-83
2022/04/03 08:03:35;;;;;;;2.85;1.58;;;4.50;67.00;;;;;;5054022;28;20029;-82
2022/04/03 08:06:01;;;;;;;3.22;1.73;;;4.40;67.30;;;;;;5053204;28;20044;-83
2022/04/03 08:08:26;;;;;;;2.58;1.55;;;4.30;67.80;;;;;;5072499;28;20040;-83
2022/04/03 08:10:52;;;;;;;3.67;1.80;;;4.20;69.10;;;;;;5072478;28;20029;-84
2022/04/03 08:13:17;;;;;;;2.42;1.60;;;4.30;68.30;;;;;;5073011;28;20029;-85
2022/04/03 08:15:43;;;;;;;3.70;1.80;;;4.30;68.90;;;;;;5070178;28;20044;-83
2022/04/03 08:18:09;;;;;;;6.95;2.88;;;4.30;68.90;;;;;;5073087;28;20016;-84
2022/04/03 08:20:35;;;;;;;3.72;2.42;;;4.30;68.70;;;;;;5071660;28;20027;-83
2022/04/03 08:23:03;;;;;;;3.40;1.95;;;4.40;68.30;;;;;;5072385;28;20057;-83
2022/04/03 08:25:29;;;;;;;1.98;1.77;;;4.50;68.00;;;;;;5069579;28;20029;-83
2022/04/03 08:27:56;;;;;;;4.07;1.65;;;4.60;68.60;;;;;;5072056;28;20043;-86
2022/04/03 08:30:23;;;;;;;2.63;1.30;;;4.70;69.90;;;;;;5037384;28;20027;-83
2022/04/03 08:32:50;;;;;;;2.47;1.52;;;4.90;69.30;;;;;;5051644;28;20036;-83
2022/04/03 08:35:16;;;;;;;3.17;2.10;;;5.10;68.20;;;;;;5049856;28;20101;-83
2022/04/03 08:37:42;;;;;;;3.45;1.80;;;5.30;66.30;;;;;;5071093;28;20041;-83
2022/04/03 08:40:09;;;;;;;3.72;1.83;;;5.40;67.20;;;;;;5073092;28;20039;-83
2022/04/03 08:42:36;;;;;;;3.70;2.00;;;5.50;65.70;;;;;;5076715;28;20060;-82
2022/04/03 08:45:02;;;;;;;1.60;1.30;;;5.70;65.60;;;;;;5084037;28;20024;-82
2022/04/03 08:47:29;;;;;;;5.05;1.67;;;5.80;64.70;;;;;;5066648;28;20029;-83
2022/04/03 08:49:57;;;;;;;1.98;1.60;;;5.90;65.00;;;;;;5059316;28;20084;-83
2022/04/03 08:52:23;;;;;;;2.05;1.70;;;5.90;64.20;;;;;;5069257;28;20027;-84
2022/04/03 08:54:50;;;;;;;2.22;1.20;;;6.00;62.60;;;;;;5080537;28;20048;-84
2022/04/03 08:57:15;;;;;;;2.40;1.67;;;6.10;64.80;;;;;;5078596;28;20020;-84
2022/04/03 08:59:42;;;;;;;1.38;1.25;;;6.30;63.80;;;;;;5071967;28;20082;-83
2022/04/03 09:02:08;;;;;;;3.80;1.40;;;6.40;64.70;;;;;;5071114;28;20024;-84
2022/04/03 09:04:37;;;;;;;3.25;1.63;;;6.60;65.40;;;;;;5070818;28;20044;-85
2022/04/03 09:07:02;;;;;;;4.22;1.88;;;6.90;62.80;;;;;;5068356;28;20109;-85
2022/04/03 09:09:28;;;;;;;0.98;0.88;;;7.20;60.40;;;;;;5068670;28;20381;-84
2022/04/03 09:12:26;;;;;;;1.25;1.05;;;7.20;57.10;;;;;;5066979;28;20032;-84
2022/04/03 09:14:52;;;;;;;1.40;1.15;;;7.30;56.60;;;;;;5027595;28;20131;-84
2022/04/03 09:17:38;;;;;;;1.20;0.98;;;7.50;56.90;;;;;;5068215;28;20407;-83
2022/04/03 09:20:07;;;;;;;1.60;0.90;;;7.50;54.70;;;;;;5050733;28;20064;-84
2022/04/03 09:22:35;;;;;;;1.80;1.13;;;7.60;54.30;;;;;;5069342;28;20111;-85
2022/04/03 09:25:04;;;;;;;3.33;0.85;;;7.70;52.20;;;;;;5070085;28;20031;-85
2022/04/03 09:27:48;;;;;;;1.25;0.95;;;7.70;52.80;;;;;;5069248;28;20069;-85
2022/04/03 09:30:14;;;;;;;1.60;1.15;;;7.50;53.00;;;;;;5053505;28;20036;-86
2022/04/03 09:32:57;;;;;;;9.60;1.10;;;7.50;54.50;;;;;;5051548;28;20029;-84
2022/04/03 09:35:31;;;;;;;2.40;0.95;;;7.40;54.30;;;;;;5069592;28;20357;-84
2022/04/03 09:38:08;;;;;;;1.88;1.10;;;7.10;54.60;;;;;;5070549;28;20040;-84
2022/04/03 09:40:36;;;;;;;2.92;1.27;;;6.80;55.80;;;;;;5051379;28;20538;-84
2022/04/03 09:43:15;;;;;;;4.13;2.30;;;6.50;56.40;;;;;;5068281;28;20358;-84
2022/04/03 09:45:51;;;;;;;8.85;7.88;;;6.20;58.10;;;;;;5069186;28;20377;-83
2022/04/03 09:48:19;;;;;;;2.63;2.28;;;6.00;59.00;;;;;;5052631;28;20036;-85
2022/04/03 09:51:03;;;;;;;4.45;4.05;;;6.10;59.10;;;;;;5070376;28;20060;-84
2022/04/03 09:53:44;;;;;;;3.00;1.30;;;6.10;58.80;;;;;;5052061;28;20029;-84
2022/04/03 09:56:11;;;;;;;2.20;1.63;;;6.20;59.00;;;;;;5060017;28;20123;-84
2022/04/03 09:58:51;;;;;;;4.55;2.47;;;6.20;58.70;;;;;;5061628;28;20142;-85
2022/04/03 10:01:23;;;;;;;3.50;2.85;;;6.20;58.40;;;;;;5069579;28;20032;-84
2022/04/03 10:03:49;;;;;;;3.63;2.03;;;6.30;58.70;;;;;;5053307;28;20053;-84
2022/04/03 10:06:14;;;;;;;1.30;1.20;;;6.40;58.10;;;;;;5069830;28;20032;-85
2022/04/03 10:08:41;;;;;;;2.45;2.25;;;6.20;56.90;;;;;;5068275;28;20074;-84
2022/04/03 10:11:08;;;;;;;1.80;1.23;;;6.20;56.90;;;;;;5070821;28;20025;-84
2022/04/03 10:13:35;;;;;;;1.63;1.30;;;6.10;56.60;;;;;;5071731;28;20043;-84
2022/04/03 10:16:01;;;;;;;3.78;1.25;;;6.20;57.10;;;;;;5053231;28;20029;-84
2022/04/03 10:18:26;;;;;;;1.42;1.30;;;6.40;57.60;;;;;;5070011;28;20024;-83
2022/04/03 10:20:52;;;;;;;4.40;3.85;;;6.60;56.50;;;;;;5068712;28;20064;-84
2022/04/03 10:23:20;;;;;;;4.68;2.22;;;6.90;56.10;;;;;;5071655;28;20039;-84
2022/04/03 10:25:49;;;;;;;2.53;2.08;;;7.30;56.10;;;;;;5069896;28;20038;-84
2022/04/03 10:28:19;;;;;;;4.57;2.47;;;7.80;54.00;;;;;;5072228;28;20032;-84
2022/04/03 10:30:45;;;;;;;4.38;3.65;;;7.80;52.00;;;;;;5070560;28;20473;-85
2022/04/03 10:33:23;;;;;;;4.45;3.88;;;7.80;51.30;;;;;;5051344;28;20021;-81
2022/04/03 10:36:04;;;;;;;1.50;1.40;;;7.80;52.00;;;;;;5069538;28;20032;-84
2022/04/03 10:38:42;;;;;;;1.90;1.05;;;7.90;52.90;;;;;;5070209;28;20048;-85
2022/04/03 10:41:24;;;;;;;1.23;1.08;;;8.30;53.20;;;;;;5071225;28;20477;-85
2022/04/03 10:43:49;;;;;;;1.10;0.93;;;8.50;51.90;;;;;;5053711;28;20119;-84
2022/04/03 10:46:15;;;;;;;2.05;1.40;;;8.40;51.10;;;;;;5071135;28;20096;-86
2022/04/03 10:48:40;;;;;;;1.70;0.90;;;8.30;50.90;;;;;;5070736;28;20111;-85
2022/04/03 10:51:30;;;;;;;1.30;0.90;;;8.30;52.00;;;;;;5053202;28;20071;-84
2022/04/03 10:54:01;;;;;;;1.48;0.90;;;8.40;50.40;;;;;;5051108;28;20322;-85
2022/04/03 10:56:28;;;;;;;2.53;1.10;;;8.20;52.10;;;;;;5060681;28;20040;-85
2022/04/03 10:58:57;;;;;;;2.78;1.02;;;8.30;51.10;;;;;;5069903;28;20058;-85
2022/04/03 11:01:26;;;;;;;1.30;0.85;;;8.50;50.20;;;;;;5069804;28;20028;-85
2022/04/03 11:04:07;;;;;;;2.33;0.93;;;8.60;52.00;;;;;;5070522;28;20021;-84
2022/04/03 11:06:35;;;;;;;1.60;0.82;;;8.70;50.40;;;;;;5053728;28;20477;-84
2022/04/03 11:09:26;;;;;;;1.77;0.88;;;8.70;51.20;;;;;;5058807;28;20032;-79
2022/04/03 11:11:54;;;;;;;2.35;0.93;;;8.80;50.80;;;;;;5079769;28;20029;-78
2022/04/03 11:14:55;;;;;;;1.50;0.80;;;8.70;52.10;;;;;;5081393;28;20034;-78
2022/04/03 11:17:42;;;;;;;3.17;1.00;;;8.80;49.30;;;;;;5071761;28;20075;-84
2022/04/03 11:20:08;;;;;;;3.28;1.23;;;8.80;50.20;;;;;;5063398;28;20420;-83
2022/04/03 11:22:35;;;;;;;2.75;1.50;;;8.80;49.30;;;;;;5074831;28;20052;-84
2022/04/03 11:25:01;;;;;;;1.48;0.82;;;8.50;49.80;;;;;;5075539;28;20032;-83
2022/04/03 11:27:26;;;;;;;2.35;1.30;;;8.20;50.00;;;;;;5057731;28;20020;-85
2022/04/03 11:29:53;;;;;;;1.15;0.90;;;8.10;49.90;;;;;;5076985;28;20040;-84
2022/04/03 11:32:19;;;;;;;1.77;0.90;;;8.20;51.60;;;;;;5050273;28;20377;-84
2022/04/03 11:34:57;;;;;;;4.57;1.27;;;8.30;51.80;;;;;;5055854;28;20048;-84
2022/04/03 11:37:23;;;;;;;2.90;2.03;;;8.60;51.30;;;;;;5056037;28;20066;-85
2022/04/03 11:39:49;;;;;;;1.58;0.77;;;9.00;51.10;;;;;;5055879;28;20037;-85
2022/04/03 11:42:14;;;;;;;1.40;0.80;;;9.30;48.10;;;;;;5075089;28;20031;-84
2022/04/03 11:44:51;;;;;;;1.95;0.70;;;9.50;50.50;;;;;;5055844;28;20032;-85
2022/04/03 11:47:21;;;;;;;1.48;1.00;;;9.50;49.10;;;;;;5072832;28;20020;-83
2022/04/03 11:50:04;;;;;;;3.35;0.90;;;9.60;49.80;;;;;;5053849;28;20085;-83
2022/04/03 11:52:30;;;;;;;1.60;0.77;;;9.60;47.70;;;;;;5055968;28;20092;-84
2022/04/03 11:54:58;;;;;;;1.80;0.88;;;9.50;48.30;;;;;;5044381;28;20444;-84
2022/04/03 11:57:24;;;;;;;2.65;1.00;;;9.40;47.70;;;;;;5035701;28;20025;-85
2022/04/03 11:59:53;;;;;;;1.30;1.00;;;9.40;50.50;;;;;;5049049;28;20036;-85
2022/04/03 12:02:19;;;;;;;1.27;0.98;;;9.50;49.30;;;;;;5073978;28;20085;-84
2022/04/03 12:04:44;;;;;;;1.10;0.93;;;9.30;47.80;;;;;;5072434;28;20496;-84
2022/04/03 12:07:14;;;;;;;0.98;0.88;;;9.20;48.80;;;;;;5072374;28;20473;-84
2022/04/03 12:09:41;;;;;;;1.20;1.00;;;9.00;49.30;;;;;;5071342;28;20021;-83
2022/04/03 12:12:08;;;;;;;1.95;0.98;;;9.00;47.90;;;;;;5054872;28;20033;-82
2022/04/03 12:14:42;;;;;;;2.90;1.10;;;8.80;48.80;;;;;;5073874;28;20043;-83
2022/04/03 12:17:10;;;;;;;1.10;1.00;;;8.80;48.00;;;;;;5053102;28;20021;-83
2022/04/03 12:19:38;;;;;;;1.42;0.80;;;8.70;48.40;;;;;;5072109;28;20517;-83
2022/04/03 12:22:06;;;;;;;2.53;1.27;;;8.50;50.40;;;;;;5072444;28;20029;-84
2022/04/03 12:24:34;;;;;;;0.90;0.80;;;8.50;50.40;;;;;;5055088;28;20115;-84
2022/04/03 12:27:15;;;;;;;2.55;1.02;;;8.50;49.10;;;;;;5054708;28;20111;-84
2022/04/03 12:29:55;;;;;;;1.40;1.13;;;8.60;49.80;;;;;;5072283;28;20028;-83
2022/04/03 12:32:26;;;;;;;2.03;0.85;;;8.90;49.70;;;;;;5064514;28;20032;-84
2022/04/03 12:34:52;;;;;;;2.75;1.08;;;9.00;48.30;;;;;;5071911;28;20032;-78
2022/04/03 12:37:19;;;;;;;1.00;0.85;;;9.10;49.30;;;;;;5053165;28;20465;-77
2022/04/03 12:39:50;;;;;;;1.23;0.90;;;9.20;48.80;;;;;;5072294;28;20025;-80
2022/04/03 12:42:23;;;;;;;2.03;1.30;;;9.30;48.60;;;;;;5071393;28;20184;-83
2022/04/03 12:45:21;;;;;;;1.10;0.75;;;9.50;49.40;;;;;;5071488;28;20025;-84
2022/04/03 12:47:48;;;;;;;2.05;0.82;;;9.70;47.60;;;;;;5053932;28;20028;-84
2022/04/03 12:50:19;;;;;;;1.45;1.00;;;9.80;47.00;;;;;;5071259;28;20434;-82
2022/04/03 12:52:48;;;;;;;3.08;1.35;;;9.60;47.00;;;;;;5073522;28;20400;-83
2022/04/03 12:55:23;;;;;;;1.92;1.17;;;9.20;47.50;;;;;;5072183;28;20185;-82
2022/04/03 13:00:57;;;;;;;2.95;1.20;;;9.30;48.20;;;;;;5072680;28;20039;-82